North Durham, North Carolina
Current Conditions -  °F | °C
As of 11:15 AM on Wednesday 26 Nov 2014 (Local Time) from KTDF Reporting Station
Overcast Overcast  
Wind Chill: 35°   Ceiling: 800
Heat Index: 41°   Visibility: 10mi
Dew Point: 41°   Wind: 9mph
Humidity: 100%   Direction: 350°N
Pressure: 29.93"   Gusts: 17mph
Location:  36.0947°N, 78.9284°W
Report Text: KTDF 261615Z AUTO 35008G15KT 10SM OVC008 05/05 A2993 RMK AO2
Loading
Personal Weather Stations






























Interactive Weather Map New forecast layout! Learn more

10-Day Weather Forecast

Advertisements
Track Severe Weather on mobile